TimeAST,TemperatureF,Dew PointF,Humidity,Sea Level PressureIn,VisibilityMPH,Wind Direction,Wind SpeedMPH,Gust SpeedMPH,PrecipitationIn,Events,Conditions,WindDirDegrees,DateUTC
12:00 AM,77.0,69.8,78,30.04,6.2,East,4.6,-,N/A,,Mostly Cloudy,100,2013-03-07 04:00:00
1:00 AM,75.2,69.8,83,30.01,6.2,Variable,2.3,-,N/A,,Partly Cloudy,0,2013-03-07 05:00:00
2:00 AM,76,70,78,29.99,16,,3.5,,,,Scattered Clouds,,2013-03-07 06:00:00
2:00 AM,75.2,69.8,83,29.98,6.2,Variable,3.5,-,N/A,,Partly Cloudy,0,2013-03-07 06:00:00
3:00 AM,75.2,69.8,83,29.98,6.2,Variable,3.5,-,N/A,,Partly Cloudy,0,2013-03-07 07:00:00
4:00 AM,75.2,69.8,83,29.98,6.2,Variable,2.3,-,N/A,,Partly Cloudy,0,2013-03-07 08:00:00
5:00 AM,76,71,80,29.98,16,,3.5,,,,Scattered Clouds,,2013-03-07 09:00:00
5:00 AM,77.0,71.6,83,29.98,6.2,Variable,3.5,-,N/A,,Partly Cloudy,0,2013-03-07 09:00:00
6:00 AM,77.0,71.6,83,30.01,6.2,Variable,3.5,-,N/A,,Scattered Clouds,0,2013-03-07 10:00:00
7:00 AM,77.0,71.6,83,30.04,6.2,Variable,2.3,-,N/A,,Partly Cloudy,0,2013-03-07 11:00:00
8:00 AM,78,72,76,30.06,28,,1.2,,,,Partly Cloudy,,2013-03-07 12:00:00
8:00 AM,78.8,71.6,78,30.04,6.2,Variable,1.2,-,N/A,,Scattered Clouds,0,2013-03-07 12:00:00
9:00 AM,82.4,71.6,70,30.06,6.2,Variable,2.3,-,N/A,,Partly Cloudy,0,2013-03-07 13:00:00
10:00 AM,82.4,71.6,70,30.06,6.2,Variable,2.3,-,N/A,,Scattered Clouds,0,2013-03-07 14:00:00
11:00 AM,83,72,63,30.07,28,SSW,3.5,,,,Scattered Clouds,210,2013-03-07 15:00:00
11:00 AM,82.4,73.4,74,30.06,6.2,SSW,3.5,-,N/A,,Partly Cloudy,210,2013-03-07 15:00:00
12:00 PM,82.4,71.6,70,30.04,6.2,Variable,3.5,-,N/A,,Partly Cloudy,0,2013-03-07 16:00:00
1:00 PM,82.4,71.6,70,30.01,6.2,Variable,3.5,-,N/A,,Partly Cloudy,0,2013-03-07 17:00:00
2:00 PM,83,71,59,30.00,22,SW,3.5,,,,Scattered Clouds,230,2013-03-07 18:00:00
2:00 PM,82.4,71.6,70,29.98,6.2,Variable,3.5,-,N/A,,Partly Cloudy,0,2013-03-07 18:00:00
3:00 PM,82.4,71.6,70,29.98,6.2,Variable,3.5,-,N/A,,Partly Cloudy,0,2013-03-07 19:00:00
4:00 PM,82.4,71.6,70,29.98,6.2,SW,4.6,-,N/A,,Partly Cloudy,230,2013-03-07 20:00:00
5:00 PM,81,71,65,29.99,22,West,4.6,,,,Partly Cloudy,280,2013-03-07 21:00:00
5:00 PM,80.6,71.6,74,29.98,6.2,West,4.6,-,N/A,,Scattered Clouds,260,2013-03-07 21:00:00
6:00 PM,78.8,71.6,78,29.98,6.2,WNW,4.6,-,N/A,,Scattered Clouds,290,2013-03-07 22:00:00
7:00 PM,78.8,71.6,78,30.01,6.2,West,3.5,-,N/A,,Scattered Clouds,280,2013-03-07 23:00:00
8:00 PM,78,71,74,30.03,22,NW,2.3,,,,Scattered Clouds,320,2013-03-08 00:00:00
8:00 PM,78.8,71.6,78,30.01,6.2,Variable,2.3,-,N/A,,Partly Cloudy,0,2013-03-08 00:00:00
9:00 PM,78.8,71.6,78,30.04,6.2,Variable,2.3,-,N/A,,Partly Cloudy,0,2013-03-08 01:00:00
10:00 PM,78.8,71.6,78,30.04,6.2,Variable,3.5,-,N/A,,Partly Cloudy,0,2013-03-08 02:00:00
11:00 PM,78,71,74,30.04,22,NNW,3.5,,,,Scattered Clouds,340,2013-03-08 03:00:00
11:00 PM,77.0,71.6,83,30.04,6.2,NNW,3.5,-,N/A,,Partly Cloudy,340,2013-03-08 03:00:00